Time;durP1;ratioP1;P1;durP2;ratioP2;P2;SDS_P1;SDS_P2;PMS_P1;PMS_P2;Temp;Humidity;BMP_temperature;BMP_pressure;BME280_temperature;BME280_humidity;BME280_pressure;Samples;Min_cycle;Max_cycle;Signal;HPM_P1;HPM_P2
2023/09/15 00:00:20;;;;;;;19.93;13.90;;;;;;;;;;5053049;28;20492;-75
2023/09/15 00:02:50;;;;;;;15.50;13.20;;;;;;;;;;5053564;28;20775;-75
2023/09/15 00:05:18;;;;;;;15.10;12.03;;;;;;;;;;5053535;28;20434;-75
2023/09/15 00:07:46;;;;;;;17.43;12.87;;;;;;;;;;5053553;28;20441;-75
2023/09/15 00:10:14;;;;;;;16.40;12.07;;;;;;;;;;5053075;28;20456;-75
2023/09/15 00:12:43;;;;;;;15.30;11.90;;;;;;;;;;5053657;28;20437;-75
2023/09/15 00:15:12;;;;;;;14.93;12.17;;;;;;;;;;5053266;28;20473;-75
2023/09/15 00:17:41;;;;;;;13.57;11.93;;;;;;;;;;5053272;28;20503;-75
2023/09/15 00:20:13;;;;;;;14.33;11.50;;;;;;;;;;5053294;28;20437;-75
2023/09/15 00:22:41;;;;;;;14.53;11.57;;;;;;;;;;5053002;28;20479;-75
2023/09/15 00:25:09;;;;;;;14.40;10.80;;;;;;;;;;5052895;28;20438;-75
2023/09/15 00:27:36;;;;;;;13.83;12.23;;;;;;;;;;5052837;28;20437;-75
2023/09/15 00:30:04;;;;;;;13.43;11.20;;;;;;;;;;5052743;28;20441;-75
2023/09/15 00:32:33;;;;;;;15.80;11.87;;;;;;;;;;5052802;28;20491;-75
2023/09/15 00:35:00;;;;;;;13.60;11.70;;;;;;;;;;5052991;28;20512;-75
2023/09/15 00:37:27;;;;;;;12.40;11.03;;;;;;;;;;5052695;28;20444;-75
2023/09/15 00:39:55;;;;;;;13.73;10.90;;;;;;;;;;5052736;28;20896;-75
2023/09/15 00:42:22;;;;;;;13.97;10.60;;;;;;;;;;5052971;28;20433;-76
2023/09/15 00:44:49;;;;;;;12.07;10.77;;;;;;;;;;5052938;28;20441;-74
2023/09/15 00:47:17;;;;;;;12.17;10.43;;;;;;;;;;5053037;28;20495;-75
2023/09/15 00:49:46;;;;;;;11.90;10.10;;;;;;;;;;5052583;28;20433;-75
2023/09/15 00:52:15;;;;;;;14.70;11.70;;;;;;;;;;5052838;28;20450;-76
2023/09/15 00:54:42;;;;;;;13.50;9.83;;;;;;;;;;5052769;28;20477;-76
2023/09/15 00:57:10;;;;;;;13.37;10.60;;;;;;;;;;5052973;28;20433;-75
2023/09/15 00:59:37;;;;;;;13.00;9.53;;;;;;;;;;5052302;28;20472;-75
2023/09/15 01:02:08;;;;;;;13.70;12.17;;;;;;;;;;5052946;28;20448;-75
2023/09/15 01:04:36;;;;;;;11.93;10.33;;;;;;;;;;5053004;28;20426;-75
2023/09/15 01:07:05;;;;;;;13.50;11.23;;;;;;;;;;5055049;28;20449;-74
2023/09/15 01:09:32;;;;;;;13.07;11.03;;;;;;;;;;5056783;28;20487;-75
2023/09/15 01:12:00;;;;;;;12.50;10.20;;;;;;;;;;5056462;28;20443;-74
2023/09/15 01:14:27;;;;;;;13.10;10.00;;;;;;;;;;5056304;28;20444;-75
2023/09/15 01:16:58;;;;;;;12.27;9.83;;;;;;;;;;5056571;28;20429;-75
2023/09/15 01:19:50;;;;;;;12.40;10.03;;;;;;;;;;5056745;28;20475;-75
2023/09/15 01:22:33;;;;;;;12.00;10.30;;;;;;;;;;5056238;28;20432;-75
2023/09/15 01:25:15;;;;;;;13.20;10.80;;;;;;;;;;5056680;28;20421;-75
2023/09/15 01:27:52;;;;;;;12.03;10.53;;;;;;;;;;5053641;28;20445;-75
2023/09/15 01:30:22;;;;;;;12.33;10.93;;;;;;;;;;5056140;28;20457;-75
2023/09/15 01:32:50;;;;;;;12.80;11.03;;;;;;;;;;5056468;28;20483;-75
2023/09/15 01:35:17;;;;;;;12.97;10.30;;;;;;;;;;5056256;28;20473;-75
2023/09/15 01:37:44;;;;;;;12.20;10.43;;;;;;;;;;5055912;28;20829;-75
2023/09/15 01:40:12;;;;;;;15.20;10.93;;;;;;;;;;5056223;28;20437;-75
2023/09/15 01:42:41;;;;;;;12.63;11.33;;;;;;;;;;5056103;28;20438;-75
2023/09/15 01:45:09;;;;;;;12.37;10.93;;;;;;;;;;5055874;28;20480;-75
2023/09/15 01:47:39;;;;;;;13.30;11.37;;;;;;;;;;5055803;28;20477;-75
2023/09/15 01:50:07;;;;;;;14.57;12.17;;;;;;;;;;5055741;28;20422;-75
2023/09/15 01:52:35;;;;;;;15.20;11.90;;;;;;;;;;5055978;28;20483;-75
2023/09/15 01:55:03;;;;;;;17.00;12.80;;;;;;;;;;5055928;28;20473;-75
2023/09/15 01:57:30;;;;;;;14.20;11.77;;;;;;;;;;5055896;28;20429;-75
2023/09/15 01:59:59;;;;;;;12.63;11.33;;;;;;;;;;5055320;28;20473;-75
2023/09/15 02:02:26;;;;;;;15.27;11.87;;;;;;;;;;5055770;28;20794;-74
2023/09/15 02:04:55;;;;;;;15.47;11.80;;;;;;;;;;5055732;28;20449;-75
2023/09/15 02:07:22;;;;;;;13.23;10.50;;;;;;;;;;5055481;28;20438;-75
2023/09/15 02:09:49;;;;;;;15.33;11.63;;;;;;;;;;5055690;28;20445;-74
2023/09/15 02:12:18;;;;;;;16.00;13.90;;;;;;;;;;5055452;28;20426;-75
2023/09/15 02:14:46;;;;;;;15.50;11.53;;;;;;;;;;5055139;28;20437;-75
2023/09/15 02:17:15;;;;;;;15.97;13.33;;;;;;;;;;5054655;28;20904;-75
2023/09/15 02:19:43;;;;;;;15.80;13.20;;;;;;;;;;5054849;28;20803;-75
2023/09/15 02:22:12;;;;;;;15.57;12.90;;;;;;;;;;5055527;28;20473;-75
2023/09/15 02:24:39;;;;;;;17.33;12.80;;;;;;;;;;5055015;28;20437;-75
2023/09/15 02:27:06;;;;;;;17.87;14.57;;;;;;;;;;5055018;28;20970;-75
2023/09/15 02:29:33;;;;;;;15.80;12.87;;;;;;;;;;5055091;28;20441;-75
2023/09/15 02:32:01;;;;;;;16.93;13.07;;;;;;;;;;5055157;28;20437;-75
2023/09/15 02:34:28;;;;;;;19.10;11.97;;;;;;;;;;5055220;28;20808;-75
2023/09/15 02:36:55;;;;;;;13.30;11.30;;;;;;;;;;5055118;28;20823;-75
2023/09/15 02:39:24;;;;;;;14.20;11.87;;;;;;;;;;5055049;28;20441;-75
2023/09/15 02:41:51;;;;;;;16.70;12.53;;;;;;;;;;5055087;28;20472;-75
2023/09/15 02:44:19;;;;;;;12.90;10.47;;;;;;;;;;5054635;28;20441;-75
2023/09/15 02:46:46;;;;;;;15.60;12.90;;;;;;;;;;5054686;28;20453;-75
2023/09/15 02:49:13;;;;;;;21.70;13.07;;;;;;;;;;5054622;28;20441;-75
2023/09/15 02:51:41;;;;;;;13.70;11.97;;;;;;;;;;5054840;28;20476;-75
2023/09/15 02:54:09;;;;;;;16.47;13.73;;;;;;;;;;5054507;28;20476;-75
2023/09/15 02:56:38;;;;;;;15.83;12.30;;;;;;;;;;5054977;28;20469;-75
2023/09/15 02:59:05;;;;;;;15.30;12.10;;;;;;;;;;5054761;28;20497;-75
2023/09/15 03:01:32;;;;;;;13.23;10.80;;;;;;;;;;5054904;28;20491;-75
2023/09/15 03:03:59;;;;;;;13.50;11.87;;;;;;;;;;5054851;28;20446;-75
2023/09/15 03:06:27;;;;;;;12.43;10.23;;;;;;;;;;5054783;28;20438;-74
2023/09/15 03:08:54;;;;;;;14.03;11.77;;;;;;;;;;5054768;28;20442;-75
2023/09/15 03:11:23;;;;;;;13.27;10.93;;;;;;;;;;5054380;28;20445;-75
2023/09/15 03:13:52;;;;;;;15.43;11.50;;;;;;;;;;5054464;28;20499;-75
2023/09/15 03:16:20;;;;;;;15.10;12.40;;;;;;;;;;5054424;28;20473;-75
2023/09/15 03:18:49;;;;;;;13.90;11.67;;;;;;;;;;5054498;28;20462;-75
2023/09/15 03:21:16;;;;;;;15.93;13.70;;;;;;;;;;5054433;28;20506;-75
2023/09/15 03:23:43;;;;;;;13.80;11.30;;;;;;;;;;5054010;28;20441;-75
2023/09/15 03:26:12;;;;;;;16.10;12.07;;;;;;;;;;5054359;28;20864;-75
2023/09/15 03:28:40;;;;;;;14.93;11.50;;;;;;;;;;5053864;28;20441;-75
2023/09/15 03:31:09;;;;;;;15.73;11.90;;;;;;;;;;5054201;28;20479;-76
2023/09/15 03:33:37;;;;;;;13.83;11.23;;;;;;;;;;5054181;28;20848;-75
2023/09/15 03:36:04;;;;;;;13.70;11.30;;;;;;;;;;5054041;28;20480;-75
2023/09/15 03:38:32;;;;;;;14.83;9.87;;;;;;;;;;5054061;28;20434;-75
2023/09/15 03:41:00;;;;;;;13.77;10.17;;;;;;;;;;5053985;28;20433;-75
2023/09/15 03:43:27;;;;;;;12.90;9.90;;;;;;;;;;5053926;28;20473;-75
2023/09/15 03:45:55;;;;;;;11.97;10.67;;;;;;;;;;5053637;28;20433;-75
2023/09/15 03:48:23;;;;;;;12.73;10.70;;;;;;;;;;5053598;28;20477;-75
2023/09/15 03:50:51;;;;;;;12.80;11.03;;;;;;;;;;5053502;28;20438;-75
2023/09/15 03:53:18;;;;;;;12.83;10.30;;;;;;;;;;5053485;28;20433;-75
2023/09/15 03:55:47;;;;;;;11.47;9.90;;;;;;;;;;5053652;28;20473;-75
2023/09/15 03:58:14;;;;;;;10.70;9.60;;;;;;;;;;5053613;28;20452;-75
2023/09/15 04:00:43;;;;;;;12.47;9.63;;;;;;;;;;5053148;28;20519;-74
2023/09/15 04:03:11;;;;;;;11.77;8.87;;;;;;;;;;5053898;28;20441;-75
2023/09/15 04:05:39;;;;;;;11.53;10.30;;;;;;;;;;5053565;28;20496;-75
2023/09/15 04:08:07;;;;;;;11.30;8.80;;;;;;;;;;5053489;28;20492;-75
2023/09/15 04:10:34;;;;;;;10.23;9.13;;;;;;;;;;5053761;28;20437;-75
2023/09/15 04:13:02;;;;;;;13.60;9.50;;;;;;;;;;5053589;28;20441;-76
2023/09/15 04:15:30;;;;;;;10.07;9.07;;;;;;;;;;5053114;28;20516;-75
2023/09/15 04:17:57;;;;;;;9.37;8.30;;;;;;;;;;5053735;28;20433;-75
2023/09/15 04:20:25;;;;;;;12.93;8.97;;;;;;;;;;5053340;28;20939;-75
2023/09/15 04:22:54;;;;;;;11.50;10.10;;;;;;;;;;5053238;28;20448;-75
2023/09/15 04:25:22;;;;;;;13.47;10.17;;;;;;;;;;5053595;28;20866;-75
2023/09/15 04:27:50;;;;;;;12.00;10.07;;;;;;;;;;5053258;28;20437;-75
2023/09/15 04:30:17;;;;;;;11.97;9.53;;;;;;;;;;5053534;28;20429;-75
2023/09/15 04:32:45;;;;;;;14.50;11.00;;;;;;;;;;5053047;28;20442;-75
2023/09/15 04:35:12;;;;;;;11.47;9.70;;;;;;;;;;5053157;28;20437;-75
2023/09/15 04:37:40;;;;;;;11.90;10.23;;;;;;;;;;5053064;28;20632;-75
2023/09/15 04:40:10;;;;;;;11.87;10.07;;;;;;;;;;5053054;28;20437;-75
2023/09/15 04:42:40;;;;;;;11.47;9.87;;;;;;;;;;5052335;28;20439;-75
2023/09/15 04:45:07;;;;;;;13.93;10.90;;;;;;;;;;5053315;28;20445;-75
2023/09/15 04:47:35;;;;;;;16.13;10.57;;;;;;;;;;5053080;28;20492;-75
2023/09/15 04:50:03;;;;;;;12.00;10.40;;;;;;;;;;5053111;28;20811;-75
2023/09/15 04:52:30;;;;;;;12.53;10.70;;;;;;;;;;5052757;28;20537;-75
2023/09/15 04:54:57;;;;;;;11.10;9.57;;;;;;;;;;5053034;28;20429;-75
2023/09/15 04:57:26;;;;;;;12.40;10.30;;;;;;;;;;5052707;28;21002;-75
2023/09/15 04:59:59;;;;;;;12.07;10.10;;;;;;;;;;5052894;28;20497;-75
2023/09/15 05:02:30;;;;;;;12.30;9.13;;;;;;;;;;5053107;28;20445;-75
2023/09/15 05:04:57;;;;;;;12.43;10.80;;;;;;;;;;5053153;28;20436;-75
2023/09/15 05:07:25;;;;;;;11.50;10.03;;;;;;;;;;5052865;28;20532;-75
2023/09/15 05:09:54;;;;;;;14.03;11.83;;;;;;;;;;5052446;28;20438;-75
2023/09/15 05:12:21;;;;;;;13.97;11.40;;;;;;;;;;5052443;28;20841;-76
2023/09/15 05:14:50;;;;;;;16.17;11.00;;;;;;;;;;5052754;28;20430;-75
2023/09/15 05:17:17;;;;;;;15.13;12.07;;;;;;;;;;5052790;28;20514;-74
2023/09/15 05:19:47;;;;;;;13.70;11.10;;;;;;;;;;5052836;28;20789;-75
2023/09/15 05:22:14;;;;;;;16.23;10.87;;;;;;;;;;5052636;28;20442;-75
2023/09/15 05:24:41;;;;;;;17.00;11.10;;;;;;;;;;5052562;28;20433;-75
2023/09/15 05:27:09;;;;;;;15.63;11.20;;;;;;;;;;5052719;28;20433;-75
2023/09/15 05:29:36;;;;;;;14.23;11.03;;;;;;;;;;5052816;28;20441;-75
2023/09/15 05:32:05;;;;;;;15.80;12.10;;;;;;;;;;5052487;28;20525;-75
2023/09/15 05:34:32;;;;;;;20.97;14.50;;;;;;;;;;5052774;28;20915;-75
2023/09/15 05:37:00;;;;;;;19.13;12.93;;;;;;;;;;5052659;28;20472;-75
2023/09/15 05:39:28;;;;;;;22.13;13.67;;;;;;;;;;5052760;28;20445;-75
2023/09/15 05:41:56;;;;;;;20.10;14.03;;;;;;;;;;5052747;28;20441;-75
2023/09/15 05:44:23;;;;;;;24.30;17.00;;;;;;;;;;5052263;28;20440;-75
2023/09/15 05:46:52;;;;;;;19.80;13.00;;;;;;;;;;5052374;28;20445;-75
2023/09/15 05:49:21;;;;;;;18.93;12.20;;;;;;;;;;5052012;28;20441;-75
2023/09/15 05:51:48;;;;;;;13.03;10.60;;;;;;;;;;5052279;28;20539;-75
2023/09/15 05:54:15;;;;;;;14.23;11.27;;;;;;;;;;5055762;28;20441;-75
2023/09/15 05:56:47;;;;;;;13.77;10.90;;;;;;;;;;5055634;28;20530;-75
2023/09/15 05:59:14;;;;;;;13.23;10.73;;;;;;;;;;5055543;28;20507;-75
2023/09/15 06:01:46;;;;;;;13.13;11.60;;;;;;;;;;5055585;28;20495;-75
2023/09/15 06:04:14;;;;;;;14.30;11.60;;;;;;;;;;5055595;28;20434;-75
2023/09/15 06:06:42;;;;;;;15.60;11.80;;;;;;;;;;5055760;28;20772;-75
2023/09/15 06:09:10;;;;;;;13.30;11.70;;;;;;;;;;5055723;28;20461;-75
2023/09/15 06:11:37;;;;;;;13.50;10.90;;;;;;;;;;5055403;28;20433;-75
2023/09/15 06:14:04;;;;;;;12.70;10.57;;;;;;;;;;5055365;28;20433;-75
2023/09/15 06:16:33;;;;;;;11.83;9.83;;;;;;;;;;5055259;28;20551;-75
2023/09/15 06:19:02;;;;;;;12.93;10.00;;;;;;;;;;5055241;28;20483;-75
2023/09/15 06:21:29;;;;;;;12.47;10.97;;;;;;;;;;5055539;28;20845;-75
2023/09/15 06:23:58;;;;;;;14.37;10.80;;;;;;;;;;5055441;28;20448;-75
2023/09/15 06:26:28;;;;;;;13.20;10.80;;;;;;;;;;5055386;28;20441;-75
2023/09/15 06:28:56;;;;;;;12.73;11.07;;;;;;;;;;5055428;28;20467;-75
2023/09/15 06:31:29;;;;;;;13.60;10.47;;;;;;;;;;5055040;28;20437;-75
2023/09/15 06:33:57;;;;;;;14.10;11.83;;;;;;;;;;5055328;28;20480;-75
2023/09/15 06:36:26;;;;;;;17.47;11.47;;;;;;;;;;5055110;28;20469;-75
2023/09/15 06:38:53;;;;;;;15.90;13.30;;;;;;;;;;5054803;28;20521;-75
2023/09/15 06:41:25;;;;;;;15.57;12.30;;;;;;;;;;5055280;28;20434;-75
2023/09/15 06:43:53;;;;;;;15.40;12.30;;;;;;;;;;5054739;28;20475;-75
2023/09/15 06:46:22;;;;;;;14.90;13.17;;;;;;;;;;5054676;28;20456;-75
2023/09/15 06:48:50;;;;;;;15.43;12.77;;;;;;;;;;5055011;28;20451;-75
2023/09/15 06:51:17;;;;;;;13.00;11.03;;;;;;;;;;5054966;28;20434;-75
2023/09/15 06:53:45;;;;;;;13.63;11.10;;;;;;;;;;5054730;28;20916;-75
2023/09/15 06:56:12;;;;;;;14.17;11.90;;;;;;;;;;5054809;28;20437;-75
2023/09/15 06:58:41;;;;;;;12.60;10.83;;;;;;;;;;5054344;28;20488;-75
2023/09/15 07:01:08;;;;;;;14.70;11.70;;;;;;;;;;5054833;28;20457;-75
2023/09/15 07:03:35;;;;;;;14.60;10.97;;;;;;;;;;5054214;28;20434;-75
2023/09/15 07:06:03;;;;;;;16.13;12.70;;;;;;;;;;5054300;28;20437;-75
2023/09/15 07:08:30;;;;;;;13.37;11.50;;;;;;;;;;5054213;28;20437;-75
2023/09/15 07:10:59;;;;;;;13.40;11.23;;;;;;;;;;5054544;28;20473;-75
2023/09/15 07:13:27;;;;;;;12.47;10.60;;;;;;;;;;5054393;28;20441;-75
2023/09/15 07:15:55;;;;;;;13.43;11.07;;;;;;;;;;5054168;28;20498;-75
2023/09/15 07:18:23;;;;;;;16.77;11.50;;;;;;;;;;5054055;28;20516;-75
2023/09/15 07:20:50;;;;;;;14.73;12.43;;;;;;;;;;5054377;28;20433;-75
2023/09/15 07:23:18;;;;;;;13.47;11.37;;;;;;;;;;5054035;28;20429;-75
2023/09/15 07:25:47;;;;;;;13.20;11.63;;;;;;;;;;5054338;28;20436;-75
2023/09/15 07:28:14;;;;;;;14.77;11.83;;;;;;;;;;5053860;28;20495;-75
2023/09/15 07:30:42;;;;;;;13.77;11.50;;;;;;;;;;5053849;28;20944;-75
2023/09/15 07:33:11;;;;;;;15.40;10.90;;;;;;;;;;5054216;28;20516;-75
2023/09/15 07:35:38;;;;;;;14.73;10.57;;;31.30;36.10;;;;;;5054129;28;20436;-75
2023/09/15 07:38:06;;;;;;;13.73;11.50;;;18.90;99.30;;;;;;5053944;28;20477;-76
2023/09/15 07:40:33;;;;;;;13.53;11.53;;;18.60;99.10;;;;;;5053675;28;20491;-75
2023/09/15 07:43:00;;;;;;;15.43;11.30;;;18.60;98.90;;;;;;5053674;28;20977;-75
2023/09/15 07:45:27;;;;;;;14.70;11.83;;;18.50;98.90;;;;;;5053853;28;20536;-75
2023/09/15 07:47:54;;;;;;;15.23;12.00;;;18.50;99.00;;;;;;5053973;28;20521;-75
2023/09/15 07:50:24;;;;;;;13.47;11.03;;;18.60;99.10;;;;;;5053578;28;20463;-75
2023/09/15 07:52:51;;;;;;;14.90;11.23;;;18.60;98.70;;;;;;5053778;28;20437;-75
2023/09/15 07:55:18;;;;;;;13.07;11.67;;;18.60;98.80;;;;;;5053910;28;20495;-75
2023/09/15 07:57:45;;;;;;;12.90;11.10;;;18.60;98.80;;;;;;5053335;28;20984;-75
2023/09/15 08:00:12;;;;;;;15.73;12.63;;;;;;;;;;5053109;28;20508;-75
2023/09/15 08:02:44;;;;;;;15.23;12.03;;;;;;;;;;5053668;28;20737;-75
2023/09/15 08:05:12;;;;;;;13.70;11.33;;;;;;;;;;5053725;28;20461;-75
2023/09/15 08:07:44;;;;;;;13.47;11.47;;;;;;;;;;5053615;28;20798;-75
2023/09/15 08:10:12;;;;;;;18.93;12.00;;;;;;;;;;5053577;28;20429;-75
2023/09/15 08:12:39;;;;;;;13.80;11.00;;;;;;;;;;5053469;28;20788;-75
2023/09/15 08:15:07;;;;;;;12.90;11.23;;;;;;;;;;5053000;28;20437;-75
2023/09/15 08:17:34;;;;;;;12.90;10.90;;;;;;;;;;5052522;28;20477;-75
2023/09/15 08:20:03;;;;;;;14.90;11.83;;;;;;;;;;5052992;28;20471;-75
2023/09/15 08:22:32;;;;;;;12.30;10.90;;;;;;;;;;5053693;28;20524;-75
2023/09/15 08:25:03;;;;;;;15.40;12.30;;;;;;;;;;5052894;28;20448;-75
2023/09/15 08:27:30;;;;;;;14.60;12.10;;;18.70;99.20;;;;;;5053425;28;20440;-75
2023/09/15 08:29:59;;;;;;;16.67;12.00;;;19.10;97.90;;;;;;5052843;28;20433;-75
2023/09/15 08:32:27;;;;;;;14.47;11.13;;;19.20;97.80;;;;;;5052828;28;20452;-75
2023/09/15 08:34:54;;;;;;;13.00;10.83;;;19.20;97.30;;;;;;5052924;28;20433;-76
2023/09/15 08:37:23;;;;;;;13.20;10.60;;;19.20;97.00;;;;;;5052709;28;20975;-75
2023/09/15 08:39:50;;;;;;;11.93;10.63;;;19.30;96.70;;;;;;5052799;28;20465;-75
2023/09/15 08:42:24;;;;;;;11.57;10.33;;;19.40;96.20;;;;;;5053139;28;20433;-75
2023/09/15 08:44:51;;;;;;;12.00;10.70;;;19.40;96.20;;;;;;5052749;28;20864;-75
2023/09/15 08:47:19;;;;;;;12.27;10.23;;;19.50;96.50;;;;;;5052765;28;20491;-75
2023/09/15 08:49:47;;;;;;;11.27;10.03;;;19.60;96.30;;;;;;5052773;28;20448;-75
2023/09/15 08:52:17;;;;;;;11.90;10.70;;;19.70;95.80;;;;;;5053042;28;20437;-75
2023/09/15 08:54:45;;;;;;;12.60;9.97;;;19.80;95.40;;;;;;5053034;28;20783;-75
2023/09/15 08:57:12;;;;;;;10.53;9.43;;;19.80;94.90;;;;;;5052846;28;20520;-75
2023/09/15 08:59:41;;;;;;;11.07;9.83;;;19.80;94.50;;;;;;5052418;28;20855;-75
2023/09/15 09:02:13;;;;;;;11.70;10.20;;;19.90;94.30;;;;;;5052616;28;20437;-75
2023/09/15 09:04:41;;;;;;;10.87;9.70;;;19.90;94.10;;;;;;5053224;28;20422;-75
2023/09/15 09:07:09;;;;;;;10.83;9.43;;;19.90;94.50;;;;;;5053063;28;20487;-75
2023/09/15 09:09:37;;;;;;;12.17;9.13;;;20.00;94.20;;;;;;5052561;28;20433;-75
2023/09/15 09:12:04;;;;;;;11.00;9.37;;;20.00;94.30;;;;;;5052845;28;20465;-75
2023/09/15 09:14:31;;;;;;;11.30;9.63;;;20.10;94.00;;;;;;5052375;28;20962;-75
2023/09/15 09:17:02;;;;;;;9.60;8.60;;;20.10;93.70;;;;;;5052707;28;20463;-75
2023/09/15 09:19:36;;;;;;;11.03;9.87;;;20.10;93.10;;;;;;5052879;28;20422;-75
2023/09/15 09:22:04;;;;;;;10.47;8.60;;;20.20;93.10;;;;;;5052379;28;20941;-75
2023/09/15 09:24:32;;;;;;;10.77;8.87;;;20.20;92.90;;;;;;5052316;28;20928;-75
2023/09/15 09:26:59;;;;;;;11.17;9.93;;;20.20;93.20;;;;;;5053165;28;20480;-75
2023/09/15 09:29:27;;;;;;;12.57;8.73;;;20.20;93.00;;;;;;5056473;28;20425;-75
2023/09/15 09:31:55;;;;;;;11.67;9.60;;;20.30;93.00;;;;;;5056432;28;20433;-75
2023/09/15 09:34:25;;;;;;;12.07;10.17;;;20.40;92.90;;;;;;5056549;28;20500;-75
2023/09/15 09:36:54;;;;;;;8.83;7.87;;;20.40;92.80;;;;;;5056686;28;20437;-75
2023/09/15 09:39:22;;;;;;;10.60;8.50;;;20.50;92.20;;;;;;5056084;28;20433;-75
2023/09/15 09:41:49;;;;;;;11.00;8.60;;;20.50;91.80;;;;;;5056332;28;20437;-75
2023/09/15 09:44:16;;;;;;;9.80;7.33;;;20.50;92.00;;;;;;5056266;28;20441;-75
2023/09/15 09:46:53;;;;;;;9.03;8.13;;;20.60;92.30;;;;;;5055896;28;20433;-75
2023/09/15 09:49:21;;;;;;;11.10;9.90;;;20.60;91.90;;;;;;5056245;28;20512;-76
2023/09/15 09:51:52;;;;;;;10.57;8.50;;;20.60;91.00;;;;;;5056047;28;20437;-75
2023/09/15 09:54:19;;;;;;;7.87;6.73;;;20.60;91.00;;;;;;5056069;28;20453;-75
2023/09/15 09:56:50;;;;;;;10.10;8.70;;;20.70;90.50;;;;;;5056091;28;20799;-75
2023/09/15 09:59:17;;;;;;;11.83;8.90;;;20.70;90.00;;;;;;5055741;28;20484;-75
2023/09/15 10:01:44;;;;;;;9.20;8.13;;;20.70;89.20;;;;;;5056080;28;20437;-75
2023/09/15 10:04:12;;;;;;;9.80;8.10;;;20.70;89.00;;;;;;5055832;28;20429;-75
2023/09/15 10:06:39;;;;;;;10.27;9.13;;;20.70;90.00;;;;;;5055739;28;20469;-75
2023/09/15 10:09:09;;;;;;;9.40;7.97;;;20.80;90.10;;;;;;5055777;28;20468;-75
2023/09/15 10:11:36;;;;;;;10.43;8.37;;;20.80;90.20;;;;;;5055403;28;20422;-75
2023/09/15 10:14:06;;;;;;;10.47;8.03;;;20.80;90.00;;;;;;5055344;28;20936;-75
2023/09/15 10:16:34;;;;;;;10.77;8.27;;;20.90;89.30;;;;;;5055362;28;20429;-75
2023/09/15 10:19:03;;;;;;;8.50;7.63;;;21.00;88.50;;;;;;5055643;28;20882;-75
2023/09/15 10:21:32;;;;;;;11.10;8.50;;;21.10;87.80;;;;;;5055563;28;20760;-75
2023/09/15 10:24:12;;;;;;;11.67;9.87;;;21.10;87.90;;;;;;5055446;28;20438;-75
2023/09/15 10:26:41;;;;;;;11.67;8.57;;;21.20;87.70;;;;;;5055398;28;20457;-75
2023/09/15 10:29:09;;;;;;;10.30;8.80;;;21.30;87.20;;;;;;5054921;28;20449;-75
2023/09/15 10:31:36;;;;;;;11.17;8.80;;;21.30;87.20;;;;;;5054921;28;20520;-76
2023/09/15 10:34:04;;;;;;;10.97;9.80;;;21.40;87.00;;;;;;5055293;28;20433;-76
2023/09/15 10:36:32;;;;;;;8.53;7.63;;;;;;;;;;5054925;28;20468;-75
2023/09/15 10:38:59;;;;;;;8.80;7.83;;;;;;;;;;5054073;28;20534;-75
2023/09/15 10:41:28;;;;;;;9.63;8.03;;;;;;;;;;5054826;28;20937;-75
2023/09/15 10:43:56;;;;;;;8.17;7.20;;;;;;;;;;5054771;28;20915;-75
2023/09/15 10:46:34;;;;;;;9.17;7.13;;;;;;;;;;5055236;28;20430;-75
2023/09/15 10:49:13;;;;;;;9.27;7.33;;;;;;;;;;5055267;28;20787;-76
2023/09/15 10:51:51;;;;;;;9.83;6.87;;;;;;;;;;5054809;28;20487;-76
2023/09/15 10:54:19;;;;;;;12.10;8.70;;;;;;;;;;5054605;28;20985;-75
2023/09/15 10:56:48;;;;;;;10.53;8.50;;;;;;;;;;5054538;28;20978;-75
2023/09/15 10:59:16;;;;;;;10.93;9.00;;;;;;;;;;5054088;28;20521;-75
2023/09/15 11:01:44;;;;;;;9.30;8.33;;;;;;;;;;5054440;28;20900;-75
2023/09/15 11:04:12;;;;;;;9.40;8.50;;;;;;;;;;5054690;28;20472;-75
2023/09/15 11:06:40;;;;;;;8.43;7.60;;;;;;;;;;5054367;28;20473;-75
2023/09/15 11:09:08;;;;;;;12.13;8.90;;;;;;;;;;5054534;28;20441;-75
2023/09/15 11:11:35;;;;;;;10.57;8.37;;;;;;;;;;5054213;28;20514;-75
2023/09/15 11:14:05;;;;;;;11.43;8.50;;;;;;;;;;5054456;28;20437;-75
2023/09/15 11:16:33;;;;;;;8.43;7.30;;;;;;;;;;5054473;28;20425;-75
2023/09/15 11:19:02;;;;;;;8.77;7.87;;;;;;;;;;5054347;28;20473;-75
2023/09/15 11:21:30;;;;;;;8.77;7.83;;;;;;;;;;5054358;28;20460;-75
2023/09/15 11:23:57;;;;;;;8.20;7.40;;;;;;;;;;5054385;28;20520;-75
2023/09/15 11:26:25;;;;;;;9.00;7.93;;;;;;;;;;5054438;28;20469;-75
2023/09/15 11:28:54;;;;;;;8.90;7.53;;;;;;;;;;5053865;28;20437;-75
2023/09/15 11:31:23;;;;;;;8.90;7.80;;;;;;;;;;5053868;28;20429;-75
2023/09/15 11:33:51;;;;;;;8.80;7.73;;;;;;;;;;5054114;28;20529;-75
2023/09/15 11:36:22;;;;;;;11.07;7.13;;;;;;;;;;5054395;28;20449;-75
2023/09/15 11:38:49;;;;;;;9.80;8.03;;;;;;;;;;5053759;28;20970;-75
2023/09/15 11:41:18;;;;;;;10.00;8.20;;;;;;;;;;5053994;28;20433;-75
2023/09/15 11:43:46;;;;;;;9.23;7.87;;;;;;;;;;5053657;28;20480;-75
2023/09/15 11:46:14;;;;;;;9.00;7.43;;;;;;;;;;5053618;28;20943;-75
2023/09/15 11:48:47;;;;;;;7.97;6.70;;;;;;;;;;5053982;28;20447;-75
2023/09/15 11:51:19;;;;;;;9.50;7.60;;;;;;;;;;5053937;28;20919;-75
2023/09/15 11:53:47;;;;;;;8.80;7.07;;;;;;;;;;5054022;28;20429;-75
2023/09/15 11:56:19;;;;;;;7.53;6.60;;;;;;;;;;5053506;28;20507;-76
2023/09/15 11:58:49;;;;;;;9.33;7.80;;;;;;;;;;5053049;28;20488;-75
2023/09/15 12:01:18;;;;;;;8.53;7.53;;;;;;;;;;5053681;28;20432;-76
2023/09/15 12:03:49;;;;;;;10.50;7.43;;;;;;;;;;5053638;28;20457;-76
2023/09/15 12:06:17;;;;;;;8.20;7.40;;;;;;;;;;5053189;28;20437;-75
2023/09/15 12:08:47;;;;;;;9.00;7.73;;;;;;;;;;5053180;28;20456;-75
2023/09/15 12:11:19;;;;;;;8.47;7.17;;;;;;;;;;5054146;28;20531;-75
2023/09/15 12:13:51;;;;;;;11.00;6.50;;;;;;;;;;5053618;28;20441;-75
2023/09/15 12:16:19;;;;;;;11.53;7.73;;;;;;;;;;5053406;28;20436;-75
2023/09/15 12:18:49;;;;;;;7.93;6.57;;;;;;;;;;5053412;28;20477;-76
2023/09/15 12:21:16;;;;;;;8.90;7.53;;;;;;;;;;5053422;28;20448;-76
2023/09/15 12:23:51;;;;;;;9.07;7.70;;;;;;;;;;5053028;28;20900;-76
2023/09/15 12:26:19;;;;;;;8.10;7.30;;;;;;;;;;5053408;28;20508;-74
2023/09/15 12:28:47;;;;;;;10.13;7.73;;;;;;;;;;5053155;28;20475;-74
2023/09/15 12:31:17;;;;;;;8.17;7.47;;;;;;;;;;5053346;28;20497;-74
2023/09/15 12:33:44;;;;;;;8.23;7.17;;;;;;;;;;5053421;28;20459;-74
2023/09/15 12:36:14;;;;;;;8.33;7.53;;;;;;;;;;5053221;28;20432;-73
2023/09/15 12:38:41;;;;;;;7.40;6.63;;;;;;;;;;5052701;28;20479;-73
2023/09/15 12:41:08;;;;;;;8.97;7.43;;;;;;;;;;5053208;28;20498;-76
2023/09/15 12:43:36;;;;;;;8.00;7.17;;;;;;;;;;5053028;28;20484;-76
2023/09/15 12:46:04;;;;;;;9.70;8.80;;;;;;;;;;5053094;28;20491;-76
2023/09/15 12:48:31;;;;;;;8.30;7.50;;;;;;;;;;5052733;28;20441;-76
2023/09/15 12:50:58;;;;;;;9.30;8.50;;;21.60;85.40;;;;;;5052657;28;20491;-76
2023/09/15 12:53:27;;;;;;;6.93;6.23;;;33.90;37.50;;;;;;5053127;28;20849;-76
2023/09/15 12:55:56;;;;;;;9.07;8.17;;;35.80;34.50;;;;;;5052697;28;20441;-76
2023/09/15 12:58:24;;;;;;;8.60;7.70;;;36.70;31.40;;;;;;5052956;28;20473;-73
2023/09/15 13:00:51;;;;;;;8.30;7.37;;;37.10;32.30;;;;;;5053124;28;20437;-73
2023/09/15 13:03:19;;;;;;;8.13;7.33;;;37.20;30.60;;;;;;5055682;28;20468;-73
2023/09/15 13:05:46;;;;;;;8.47;7.30;;;36.40;31.00;;;;;;5056671;28;20471;-73
2023/09/15 13:08:13;;;;;;;8.97;8.07;;;35.90;32.70;;;;;;5056565;28;20468;-73
2023/09/15 13:10:41;;;;;;;7.77;6.93;;;35.70;32.30;;;;;;5056570;28;20449;-73
2023/09/15 13:13:09;;;;;;;9.93;9.03;;;34.70;33.80;;;;;;5056488;28;20974;-73
2023/09/15 13:15:36;;;;;;;8.40;7.60;;;33.40;33.80;;;;;;5056799;28;20437;-73
2023/09/15 13:18:03;;;;;;;9.77;8.33;;;31.90;36.00;;;;;;5056732;28;20437;-73
2023/09/15 13:20:30;;;;;;;9.00;8.10;;;30.90;39.40;;;;;;5056733;28;20476;-73
2023/09/15 13:22:57;;;;;;;8.20;7.40;;;30.10;41.70;;;;;;5056639;28;20429;-73
2023/09/15 13:25:29;;;;;;;8.17;7.40;;;29.60;42.60;;;;;;5056677;28;20436;-73
2023/09/15 13:27:58;;;;;;;8.00;7.20;;;29.10;45.10;;;;;;5056725;28;20444;-73
2023/09/15 13:30:25;;;;;;;9.77;8.03;;;28.70;46.00;;;;;;5056514;28;20490;-73
2023/09/15 13:32:52;;;;;;;9.73;7.23;;;28.20;46.80;;;;;;5056125;28;20443;-73
2023/09/15 13:35:19;;;;;;;8.33;7.43;;;27.90;48.50;;;;;;5056156;28;20437;-73
2023/09/15 13:37:46;;;;;;;9.77;8.77;;;27.70;49.80;;;;;;5056391;28;20540;-73
2023/09/15 13:40:17;;;;;;;9.10;8.20;;;27.50;50.00;;;;;;5056373;28;20477;-73
2023/09/15 13:42:52;;;;;;;10.50;6.97;;;27.30;50.20;;;;;;5056338;28;20425;-73
2023/09/15 13:45:21;;;;;;;9.00;7.70;;;27.10;51.40;;;;;;5055983;28;20437;-73
2023/09/15 13:47:48;;;;;;;9.30;8.40;;;27.00;50.70;;;;;;5055911;28;20456;-73
2023/09/15 13:50:15;;;;;;;10.10;8.47;;;26.70;50.60;;;;;;5055841;28;20441;-73
2023/09/15 13:52:42;;;;;;;8.70;7.80;;;26.30;51.30;;;;;;5055864;28;20430;-75
2023/09/15 13:55:13;;;;;;;10.10;7.70;;;26.00;52.40;;;;;;5055729;28;20794;-75
2023/09/15 13:57:40;;;;;;;9.80;8.00;;;25.90;53.90;;;;;;5056110;28;20421;-75